Time;durP1;ratioP1;P1;durP2;ratioP2;P2;SDS_P1;SDS_P2;PMS_P1;PMS_P2;Temp;Humidity;BMP_temperature;BMP_pressure;BME280_temperature;BME280_humidity;BME280_pressure;Samples;Min_cycle;Max_cycle;Signal;HPM_P1;HPM_P2
2024/02/25 00:02:08;;;;;;;1.97;1.50;;;;;;;4.38;100.00;100392.94;7696663;23;20298;-70
2024/02/25 00:05:31;;;;;;;2.47;2.10;;;;;;;4.41;100.00;100390.03;7697482;23;20212;-69
2024/02/25 00:08:52;;;;;;;2.80;1.40;;;;;;;4.47;100.00;100379.78;7665843;23;20216;-69
2024/02/25 00:12:14;;;;;;;2.33;2.03;;;;;;;4.49;100.00;100380.53;7700614;23;20207;-70
2024/02/25 00:15:35;;;;;;;1.40;1.30;;;;;;;4.46;100.00;100391.44;7696456;23;20219;-69
2024/02/25 00:18:57;;;;;;;2.73;2.00;;;;;;;4.43;100.00;100390.78;7702556;23;20212;-69
2024/02/25 00:22:17;;;;;;;0.87;0.87;;;;;;;4.40;100.00;100394.50;7703749;23;20237;-69
2024/02/25 00:25:38;;;;;;;1.20;1.10;;;;;;;4.42;100.00;100400.59;7702470;23;20558;-69
2024/02/25 00:29:01;;;;;;;1.90;1.43;;;;;;;4.41;100.00;100406.91;7708531;23;20215;-69
2024/02/25 00:32:23;;;;;;;1.53;1.43;;;;;;;4.35;100.00;100410.00;7695259;23;20211;-69
2024/02/25 00:35:46;;;;;;;1.40;1.30;;;;;;;4.30;100.00;100406.81;7699888;23;20336;-68
2024/02/25 00:39:07;;;;;;;2.00;1.57;;;;;;;4.27;100.00;100412.38;7706889;23;20637;-68
2024/02/25 00:42:28;;;;;;;2.10;1.63;;;;;;;4.26;100.00;100409.78;7699298;23;20287;-68
2024/02/25 00:45:50;;;;;;;1.73;1.63;;;;;;;4.23;100.00;100402.88;7699866;23;20509;-69
2024/02/25 00:49:11;;;;;;;1.30;1.20;;;;;;;4.22;100.00;100403.81;7705101;23;20290;-70
2024/02/25 00:52:33;;;;;;;1.30;1.20;;;;;;;4.18;100.00;100399.66;7698631;23;20445;-69
2024/02/25 00:55:55;;;;;;;1.87;1.50;;;;;;;4.14;100.00;100390.19;7700330;23;20220;-69
2024/02/25 00:59:16;;;;;;;1.60;1.07;;;;;;;4.18;100.00;100390.81;7703216;23;20211;-69
2024/02/25 01:02:38;;;;;;;2.43;1.57;;;;;;;4.11;100.00;100385.03;7694463;23;20438;-69
2024/02/25 01:05:59;;;;;;;2.13;1.93;;;;;;;4.28;100.00;100398.06;7678825;23;20216;-69
2024/02/25 01:09:20;;;;;;;2.03;1.27;;;;;;;4.15;100.00;100394.56;7704618;23;20231;-68
2024/02/25 01:12:41;;;;;;;2.60;2.03;;;;;;;4.04;100.00;100397.13;7700967;23;20203;-69
2024/02/25 01:16:03;;;;;;;2.13;1.93;;;;;;;4.00;100.00;100390.31;7700051;23;20298;-69
2024/02/25 01:19:25;;;;;;;1.47;1.33;;;;;;;4.02;100.00;100399.91;7704451;23;20242;-69
2024/02/25 01:22:46;;;;;;;1.73;1.63;;;;;;;4.07;100.00;100394.22;7699032;23;20602;-69
2024/02/25 01:26:07;;;;;;;1.57;1.43;;;;;;;3.99;100.00;100388.56;7700351;23;20215;-68
2024/02/25 01:29:28;;;;;;;1.47;1.30;;;;;;;3.98;100.00;100393.03;7707587;22;20203;-67
2024/02/25 01:32:49;;;;;;;1.70;1.60;;;;;;;4.00;100.00;100382.31;7696175;23;20253;-70
2024/02/25 01:36:11;;;;;;;0.93;0.93;;;;;;;3.97;100.00;100378.03;7699809;23;20215;-69
2024/02/25 01:39:32;;;;;;;1.60;1.50;;;;;;;4.07;100.00;100391.56;7706752;23;20208;-70
2024/02/25 01:43:06;;;;;;;1.43;1.33;;;;;;;4.13;100.00;100383.13;7697211;23;20207;-69
2024/02/25 01:46:27;;;;;;;2.87;2.40;;;;;;;4.28;100.00;100392.72;7696514;23;20212;-69
2024/02/25 01:49:48;;;;;;;1.50;1.40;;;;;;;4.27;100.00;100375.03;7703872;23;20506;-70
2024/02/25 01:53:13;;;;;;;2.03;1.83;;;;;;;4.26;100.00;100378.63;7701252;23;20220;-68
2024/02/25 01:56:35;;;;;;;1.80;1.70;;;;;;;4.20;100.00;100375.56;7695019;23;20302;-70
2024/02/25 01:59:57;;;;;;;2.77;2.57;;;;;;;4.23;100.00;100381.53;7706434;23;20211;-70
2024/02/25 02:03:18;;;;;;;2.70;2.10;;;;;;;4.27;100.00;100379.50;7700821;23;20211;-68
2024/02/25 02:06:40;;;;;;;3.73;2.27;;;;;;;4.04;100.00;100378.47;7683756;23;20431;-68
2024/02/25 02:10:04;;;;;;;2.73;2.50;;;;;;;4.17;100.00;100375.78;7707642;23;20554;-68
2024/02/25 02:13:25;;;;;;;1.97;1.50;;;;;;;4.29;100.00;100382.91;7704643;23;20211;-70
2024/02/25 02:16:46;;;;;;;2.63;2.43;;;;;;;4.10;100.00;100378.03;7698914;23;20558;-70
2024/02/25 02:20:14;;;;;;;2.40;2.17;;;;;;;4.10;100.00;100370.03;7699374;23;20212;-69
2024/02/25 02:23:37;;;;;;;2.23;2.03;;;;;;;4.03;100.00;100371.41;7707359;23;20215;-69
2024/02/25 02:26:58;;;;;;;1.83;1.60;;;;;;;3.96;100.00;100365.63;7702932;23;20215;-69
2024/02/25 02:30:19;;;;;;;1.70;1.60;;;;;;;3.89;100.00;100369.72;7703461;23;20554;-68
2024/02/25 02:33:40;;;;;;;2.13;1.93;;;;;;;3.99;100.00;100364.59;7702474;23;20212;-70
2024/02/25 02:37:01;;;;;;;2.40;2.03;;;;;;;4.10;100.00;100363.81;7702535;23;20216;-69
2024/02/25 02:40:23;;;;;;;2.67;2.47;;;;;;;4.15;100.00;100359.03;7696169;23;20228;-68
2024/02/25 02:43:47;;;;;;;3.47;2.27;;;;;;;4.21;100.00;100358.59;7706730;23;20247;-69
2024/02/25 02:47:08;;;;;;;2.17;1.87;;;;;;;3.99;100.00;100365.44;7697798;23;20292;-68
2024/02/25 02:50:29;;;;;;;2.30;1.77;;;;;;;3.83;100.00;100371.94;7701406;23;20211;-69
2024/02/25 02:53:50;;;;;;;2.67;2.47;;;;;;;3.83;100.00;100370.16;7707022;23;20207;-69
2024/02/25 02:57:12;;;;;;;1.93;1.77;;;;;;;3.97;100.00;100367.38;7699839;23;20220;-68
2024/02/25 03:00:34;;;;;;;1.80;1.57;;;;;;;3.90;100.00;100366.06;7697327;23;20204;-68
2024/02/25 03:03:55;;;;;;;1.70;1.60;;;;;;;4.03;100.00;100364.25;7705838;23;20208;-69
2024/02/25 03:07:16;;;;;;;3.60;1.80;;;;;;;3.81;100.00;100360.53;7699326;23;20207;-68
2024/02/25 03:10:39;;;;;;;1.73;1.60;;;;;;;3.90;100.00;100357.25;7701271;23;20220;-69
2024/02/25 03:14:02;;;;;;;1.77;1.67;;;;;;;3.91;100.00;100356.25;7707544;23;20602;-69
2024/02/25 03:17:23;;;;;;;2.47;2.27;;;;;;;4.04;100.00;100354.47;7659227;23;20212;-69
2024/02/25 03:20:44;;;;;;;2.30;2.07;;;;;;;4.05;100.00;100358.81;7700167;23;20212;-68
2024/02/25 03:24:06;;;;;;;1.67;1.57;;;;;;;4.14;100.00;100346.66;7706541;23;20203;-68
2024/02/25 03:27:27;;;;;;;2.60;2.03;;;;;;;4.18;100.00;100348.13;7699422;23;20216;-69
2024/02/25 03:30:49;;;;;;;1.97;1.87;;;;;;;4.14;100.00;100344.84;7699764;23;20258;-68
2024/02/25 03:34:10;;;;;;;2.10;2.00;;;;;;;4.17;100.00;100338.44;7683242;23;20265;-69
2024/02/25 03:37:31;;;;;;;3.20;2.87;;;;;;;4.18;100.00;100337.47;7698780;23;20223;-69
2024/02/25 03:40:52;;;;;;;4.13;2.27;;;;;;;4.16;100.00;100342.91;7654796;23;20875;-68
2024/02/25 03:44:13;;;;;;;2.47;2.27;;;;;;;4.07;100.00;100346.22;7707483;23;20287;-69
2024/02/25 03:47:35;;;;;;;4.27;2.00;;;;;;;4.07;100.00;100334.72;7678163;23;20208;-68
2024/02/25 03:50:56;;;;;;;1.33;1.30;;;;;;;3.93;100.00;100347.22;7697797;23;20286;-68
2024/02/25 03:54:17;;;;;;;1.70;1.60;;;;;;;3.82;100.00;100336.44;7706123;23;20211;-69
2024/02/25 03:57:38;;;;;;;2.57;2.33;;;;;;;3.85;100.00;100330.91;7699725;23;20298;-69
2024/02/25 04:00:59;;;;;;;2.50;2.07;;;;;;;3.96;100.00;100338.97;7699690;23;20212;-69
2024/02/25 04:04:21;;;;;;;1.47;1.43;;;;;;;3.94;100.00;100332.06;7705257;23;20208;-68
2024/02/25 04:07:42;;;;;;;2.67;1.57;;;;;;;3.89;100.00;100332.38;7699689;23;20854;-69
2024/02/25 04:11:03;;;;;;;1.80;1.70;;;;;;;3.90;100.00;100325.25;7698724;23;20278;-69
2024/02/25 04:14:24;;;;;;;2.50;1.30;;;;;;;3.76;100.00;100326.19;7708501;23;20275;-69
2024/02/25 04:17:45;;;;;;;5.43;1.97;;;;;;;3.86;100.00;100318.41;7695847;23;20227;-68
2024/02/25 04:21:07;;;;;;;2.17;1.60;;;;;;;4.02;100.00;100322.56;7699514;23;20263;-67
2024/02/25 04:24:28;;;;;;;1.57;1.30;;;;;;;4.03;100.00;100326.94;7707102;23;20207;-68
2024/02/25 04:27:49;;;;;;;1.53;1.43;;;;;;;3.77;100.00;100321.72;7701001;23;20212;-68
2024/02/25 04:31:10;;;;;;;1.23;1.20;;;;;;;3.91;100.00;100318.94;7699051;23;20441;-69
2024/02/25 04:34:31;;;;;;;1.63;1.53;;;;;;;3.92;100.00;100307.34;7692636;23;20223;-69
2024/02/25 04:37:54;;;;;;;1.90;1.70;;;;;;;4.05;100.00;100319.66;7699957;23;20223;-68
2024/02/25 04:41:15;;;;;;;5.17;1.53;;;;;;;3.69;100.00;100308.91;7696615;23;20234;-67
2024/02/25 04:44:36;;;;;;;1.73;1.63;;;;;;;3.70;100.00;100310.63;7706260;23;20786;-69
2024/02/25 04:47:57;;;;;;;1.73;1.63;;;;;;;3.59;100.00;100307.84;7694368;23;20613;-69
2024/02/25 04:51:19;;;;;;;1.53;1.23;;;;;;;3.76;100.00;100312.00;7699433;23;20298;-68
2024/02/25 04:54:43;;;;;;;1.50;1.40;;;;;;;3.67;100.00;100316.16;7709992;23;20215;-69
2024/02/25 04:58:05;;;;;;;1.23;1.17;;;;;;;3.66;100.00;100317.16;7698734;23;20216;-69
2024/02/25 05:01:26;;;;;;;2.20;1.47;;;;;;;3.74;100.00;100304.13;7700780;23;20638;-68
2024/02/25 05:04:47;;;;;;;1.77;1.53;;;;;;;3.95;100.00;100299.97;7684434;23;20255;-69
2024/02/25 05:08:08;;;;;;;1.30;1.20;;;;;;;3.96;100.00;100296.31;7702238;23;20224;-68
2024/02/25 05:11:30;;;;;;;1.17;0.97;;;;;;;3.98;100.00;100306.91;7700079;23;20925;-68
2024/02/25 05:14:51;;;;;;;1.10;1.00;;;;;;;4.04;100.00;100298.47;7706347;23;20602;-68
2024/02/25 05:18:12;;;;;;;1.80;1.67;;;;;;;4.11;100.00;100290.88;7702675;23;20236;-69
2024/02/25 05:21:33;;;;;;;6.50;1.43;;;;;;;4.22;100.00;100294.47;7701504;23;20215;-68
2024/02/25 05:24:54;;;;;;;5.47;1.43;;;;;;;4.20;100.00;100284.84;7708091;23;20212;-68
2024/02/25 05:28:16;;;;;;;2.83;2.10;;;;;;;4.27;100.00;100284.31;7704817;23;20207;-69
2024/02/25 05:31:38;;;;;;;2.30;2.10;;;;;;;4.35;100.00;100281.09;7697265;23;20461;-68
2024/02/25 05:35:00;;;;;;;1.50;1.40;;;;;;;4.10;100.00;100279.34;7705610;23;20207;-68
2024/02/25 05:38:20;;;;;;;2.17;1.73;;;;;;;4.05;100.00;100274.34;7703403;23;20235;-68
2024/02/25 05:41:41;;;;;;;1.87;1.73;;;;;;;4.00;100.00;100267.63;7700530;23;20562;-68
2024/02/25 05:45:06;;;;;;;3.33;2.40;;;;;;;4.09;100.00;100266.13;7705984;23;20216;-69
2024/02/25 05:48:27;;;;;;;3.33;1.60;;;;;;;4.21;100.00;100263.44;7678025;23;20203;-69
2024/02/25 05:51:48;;;;;;;5.93;3.33;;;;;;;4.20;100.00;100260.84;7696817;23;20570;-68
2024/02/25 05:55:09;;;;;;;1.67;1.50;;;;;;;4.23;100.00;100265.97;7706134;23;20223;-68
2024/02/25 05:58:30;;;;;;;5.47;1.67;;;;;;;4.25;100.00;100269.38;7708979;23;20227;-69
2024/02/25 06:01:52;;;;;;;1.53;1.43;;;;;;;4.21;100.00;100267.91;7675673;23;20216;-68
2024/02/25 06:05:14;;;;;;;2.27;2.07;;;;;;;4.35;100.00;100267.75;7704685;23;20611;-68
2024/02/25 06:08:35;;;;;;;1.90;1.50;;;;;;;4.03;100.00;100262.06;7706985;23;20212;-68
2024/02/25 06:11:56;;;;;;;1.30;1.20;;;;;;;4.21;100.00;100262.56;7699572;23;20215;-68
2024/02/25 06:15:19;;;;;;;2.47;2.27;;;;;;;4.42;100.00;100267.19;7704562;23;20207;-68
2024/02/25 06:18:41;;;;;;;3.80;1.30;;;;;;;4.45;100.00;100255.44;7707158;23;20617;-69
2024/02/25 06:22:03;;;;;;;1.30;1.20;;;;;;;4.46;100.00;100255.34;7701420;23;20207;-68
2024/02/25 06:25:24;;;;;;;1.40;1.30;;;;;;;4.40;100.00;100261.09;7665014;23;20208;-69
2024/02/25 06:28:44;;;;;;;1.60;1.50;;;;;;;4.43;100.00;100257.38;7709174;23;20487;-69
2024/02/25 06:32:06;;;;;;;2.13;1.73;;;;;;;4.36;100.00;100251.63;7702888;23;20455;-68
2024/02/25 06:35:28;;;;;;;1.97;1.20;;;;;;;4.20;100.00;100258.19;7699679;23;20562;-68
2024/02/25 06:38:49;;;;;;;1.33;1.23;;;;;;;4.19;100.00;100260.03;7705494;23;20582;-68
2024/02/25 06:42:10;;;;;;;2.33;1.53;;;;;;;4.10;100.00;100258.00;7679947;23;20985;-68
2024/02/25 06:45:31;;;;;;;1.53;1.43;;;;;;;4.08;100.00;100262.59;7699782;23;20211;-68
2024/02/25 06:48:52;;;;;;;1.20;1.10;;;;;;;4.28;100.00;100259.34;7704600;23;20212;-69
2024/02/25 06:52:14;;;;;;;2.27;1.40;;;;;;;4.30;100.00;100267.25;7704877;23;20216;-69
2024/02/25 06:55:35;;;;;;;1.67;1.20;;;;;;;4.34;100.00;100271.41;7678966;23;20282;-68
2024/02/25 06:58:56;;;;;;;1.40;1.30;;;;;;;4.35;100.00;100270.41;7707826;23;20239;-68
2024/02/25 07:02:17;;;;;;;1.80;1.70;;;;;;;4.37;100.00;100261.34;7695483;23;20211;-69
2024/02/25 07:05:38;;;;;;;1.30;1.30;;;;;;;4.50;100.00;100272.84;7700423;23;20211;-68
2024/02/25 07:09:00;;;;;;;1.37;1.27;;;;;;;4.49;100.00;100270.25;7706364;23;20211;-69
2024/02/25 07:12:21;;;;;;;1.23;1.07;;;;;;;4.46;100.00;100279.38;7697967;23;20211;-69
2024/02/25 07:15:42;;;;;;;1.67;1.37;;;;;;;4.63;100.00;100265.59;7702591;23;20211;-68
2024/02/25 07:19:03;;;;;;;1.63;1.20;;;;;;;4.49;100.00;100275.59;7703053;23;20220;-69
2024/02/25 07:22:24;;;;;;;1.60;1.50;;;;;;;5.03;100.00;100267.97;7698401;23;20559;-67
2024/02/25 07:25:46;;;;;;;5.67;2.17;;;;;;;4.99;100.00;100277.16;7694206;23;20212;-68
2024/02/25 07:29:07;;;;;;;2.00;1.23;;;;;;;4.97;100.00;100269.28;7703715;23;20215;-68
2024/02/25 07:32:28;;;;;;;1.77;1.37;;;;;;;5.23;100.00;100267.31;7695572;23;20299;-69
2024/02/25 07:35:49;;;;;;;2.40;2.20;;;;;;;5.91;100.00;100269.97;7700579;23;20208;-69
2024/02/25 07:39:13;;;;;;;7.90;7.20;;;;;;;6.34;100.00;100271.75;7700645;23;20211;-69
2024/02/25 07:42:35;;;;;;;2.13;1.93;;;;;;;6.41;100.00;100272.13;7698499;23;20216;-68
2024/02/25 07:45:56;;;;;;;14.27;13.43;;;;;;;6.28;100.00;100271.41;7698807;23;20220;-68
2024/02/25 07:49:17;;;;;;;37.00;33.93;;;;;;;6.74;100.00;100272.03;7705580;23;20208;-68
2024/02/25 07:52:38;;;;;;;2.63;2.43;;;;;;;6.71;100.00;100274.13;7670373;23;20215;-69
2024/02/25 07:55:59;;;;;;;1.90;1.40;;;;;;;6.35;100.00;100270.78;7704137;23;20208;-69
2024/02/25 07:59:21;;;;;;;1.37;0.97;;;;;;;6.21;100.00;100268.38;7703060;23;20220;-69
2024/02/25 08:02:42;;;;;;;2.40;1.70;;;;;;;5.96;100.00;100265.97;7699431;22;20887;-70
2024/02/25 08:06:04;;;;;;;1.87;1.10;;;;;;;5.66;100.00;100266.53;7677889;23;20204;-70
2024/02/25 08:09:25;;;;;;;1.60;1.50;;;;;;;5.77;100.00;100270.19;7692206;23;20208;-68
2024/02/25 08:12:46;;;;;;;1.50;1.40;;;;;;;5.68;100.00;100269.06;7675765;23;20562;-68
2024/02/25 08:16:08;;;;;;;1.73;1.63;;;;;;;5.46;100.00;100261.03;7696164;23;20216;-70
2024/02/25 08:19:29;;;;;;;3.97;1.80;;;;;;;5.56;100.00;100267.38;7696500;23;20216;-68
2024/02/25 08:22:50;;;;;;;1.40;1.23;;;;;;;5.53;100.00;100265.78;7697376;23;20211;-68
2024/02/25 08:26:11;;;;;;;3.83;1.70;;;;;;;5.61;100.00;100265.19;7702940;23;20212;-69
2024/02/25 08:29:32;;;;;;;1.10;1.10;;;;;;;5.78;100.00;100255.84;7707819;23;20207;-69
2024/02/25 08:32:54;;;;;;;1.40;1.30;;;;;;;5.93;100.00;100260.00;7699153;23;20223;-69
2024/02/25 08:36:15;;;;;;;2.20;1.20;;;;;;;5.75;100.00;100266.78;7700983;23;20208;-68
2024/02/25 08:39:36;;;;;;;2.37;1.00;;;;;;;5.69;100.00;100266.28;7702741;23;20228;-69
2024/02/25 08:42:58;;;;;;;1.57;1.47;;;;;;;5.85;100.00;100251.72;7684513;23;20207;-68
2024/02/25 08:46:18;;;;;;;1.53;1.27;;;;;;;5.92;100.00;100256.50;7700779;23;20223;-69
2024/02/25 08:49:42;;;;;;;1.37;1.27;;;;;;;5.91;100.00;100256.59;7704006;23;20598;-69
2024/02/25 08:53:03;;;;;;;2.40;1.77;;;;;;;6.06;100.00;100252.69;7696167;23;20816;-69
2024/02/25 08:56:23;;;;;;;1.10;0.90;;;;;;;6.04;100.00;100258.19;7695077;22;20220;-68
2024/02/25 08:59:45;;;;;;;1.70;1.43;;;;;;;6.11;100.00;100259.38;7704693;23;20216;-69
2024/02/25 09:03:06;;;;;;;1.37;1.27;;;;;;;6.22;100.00;100262.03;7695620;23;20320;-66
2024/02/25 09:06:29;;;;;;;1.43;1.10;;;;;;;6.03;100.00;100261.00;7697744;23;20215;-65
2024/02/25 09:09:51;;;;;;;0.93;0.93;;;;;;;6.12;100.00;100249.53;7702531;23;20283;-66
2024/02/25 09:13:12;;;;;;;1.43;1.33;;;;;;;6.29;100.00;100255.25;7702905;23;20220;-67
2024/02/25 09:16:33;;;;;;;1.93;1.27;;;;;;;6.25;100.00;100252.94;7698508;23;20216;-67
2024/02/25 09:19:54;;;;;;;2.27;1.30;;;;;;;6.30;100.00;100254.25;7682567;23;20511;-67
2024/02/25 09:23:16;;;;;;;1.70;1.60;;;;;;;6.24;100.00;100254.75;7700612;23;20211;-66
2024/02/25 09:26:37;;;;;;;1.37;1.23;;;;;;;6.32;100.00;100244.25;7701400;23;20353;-66
2024/02/25 09:29:58;;;;;;;2.00;1.70;;;;;;;6.55;100.00;100250.41;7705863;23;20217;-66
2024/02/25 09:33:20;;;;;;;2.10;1.73;;;;;;;6.51;100.00;100248.13;7702511;23;20211;-67
2024/02/25 09:36:43;;;;;;;0.83;0.83;;;;;;;6.61;100.00;100249.06;7694893;23;20223;-67
2024/02/25 09:40:08;;;;;;;1.53;1.43;;;;;;;7.21;100.00;100247.47;7702091;23;20245;-68
2024/02/25 09:43:29;;;;;;;1.43;1.00;;;;;;;7.34;100.00;100239.25;7708955;23;20251;-67
2024/02/25 09:46:51;;;;;;;1.57;1.30;;;;;;;7.94;100.00;100254.50;7698152;23;20208;-66
2024/02/25 09:50:13;;;;;;;1.30;1.10;;;;;;;7.13;100.00;100239.22;7684709;23;20507;-67
2024/02/25 09:53:36;;;;;;;1.50;1.40;;;;;;;7.02;100.00;100239.28;7702126;23;20445;-67
2024/02/25 09:56:58;;;;;;;2.10;1.73;;;;;;;7.23;100.00;100231.25;7694889;23;20291;-68
2024/02/25 10:00:21;;;;;;;1.57;1.10;;;;;;;7.52;100.00;100242.16;7696374;23;20295;-66
2024/02/25 10:03:42;;;;;;;0.90;0.73;;;;;;;7.88;100.00;100236.28;7705115;23;20216;-67
2024/02/25 10:07:03;;;;;;;1.57;1.47;;;;;;;8.22;100.00;100237.66;7696527;23;20212;-68
2024/02/25 10:10:25;;;;;;;2.30;1.20;;;;;;;8.26;100.00;100230.22;7701739;23;20219;-66
2024/02/25 10:13:48;;;;;;;4.53;2.07;;;;;;;8.63;100.00;100223.22;7708124;23;20266;-67
2024/02/25 10:17:10;;;;;;;1.00;0.90;;;;;;;9.14;100.00;100217.53;7690660;23;20216;-67
2024/02/25 10:20:30;;;;;;;3.10;1.47;;;;;;;9.23;100.00;100222.06;7695003;23;20637;-67
2024/02/25 10:23:55;;;;;;;2.07;1.70;;;;;;;8.98;100.00;100226.19;7708684;23;20207;-67
2024/02/25 10:27:16;;;;;;;0.90;0.90;;;;;;;10.20;100.00;100227.03;7700274;23;20292;-66
2024/02/25 10:30:38;;;;;;;0.90;0.90;;;;;;;10.84;100.00;100218.81;7704007;23;20445;-67
2024/02/25 10:34:00;;;;;;;1.40;1.03;;;;;;;12.23;100.00;100207.81;7707600;23;20212;-67
2024/02/25 10:37:23;;;;;;;1.33;1.23;;;;;;;12.24;100.00;100212.22;7694040;23;20212;-68
2024/02/25 10:40:44;;;;;;;1.37;1.20;;;;;;;12.13;100.00;100198.97;7698204;23;20563;-68
2024/02/25 10:44:07;;;;;;;2.07;1.17;;;;;;;10.42;100.00;100205.06;7694451;23;20212;-68
2024/02/25 10:47:31;;;;;;;1.10;1.07;;;;;;;9.57;100.00;100201.75;7698375;23;20212;-68
2024/02/25 10:50:53;;;;;;;2.20;1.30;;;;;;;10.14;100.00;100195.28;7702234;23;20204;-68
2024/02/25 10:54:16;;;;;;;2.23;1.57;;;;;;;9.47;100.00;100204.47;7702465;23;20231;-67
2024/02/25 10:57:40;;;;;;;1.07;1.07;;;;;;;9.08;100.00;100200.16;7695327;23;20212;-67
2024/02/25 11:01:02;;;;;;;1.90;1.77;;;;;;;9.27;100.00;100212.72;7692493;23;20211;-66
2024/02/25 11:04:25;;;;;;;2.03;1.80;;;;;;;11.34;100.00;100194.78;7703563;23;20208;-68
2024/02/25 11:07:47;;;;;;;3.90;1.83;;;;;;;12.06;100.00;100205.22;7697422;23;20231;-68
2024/02/25 11:11:09;;;;;;;1.13;1.10;;;;;;;10.43;100.00;100194.13;7703080;23;20543;-66
2024/02/25 11:14:35;;;;;;;1.33;1.23;;;;;;;9.44;100.00;100209.28;7706272;23;20501;-67
2024/02/25 11:17:56;;;;;;;1.97;1.77;;;;;;;9.17;100.00;100191.22;7690857;23;20207;-68
2024/02/25 11:21:20;;;;;;;1.60;1.37;;;;;;;9.61;100.00;100195.09;7674567;23;20212;-67
2024/02/25 11:24:47;;;;;;;1.40;1.27;;;;;;;10.20;100.00;100192.03;7706613;23;20215;-67
2024/02/25 11:28:10;;;;;;;2.03;1.27;;;;;;;10.92;100.00;100194.59;7704070;23;20549;-66
2024/02/25 11:31:51;;;;;;;1.13;1.00;;;;;;;10.96;100.00;100179.81;7693185;23;20287;-66
2024/02/25 11:35:15;;;;;;;1.63;1.40;;;;;;;9.98;100.00;100187.00;7695987;23;20215;-67
2024/02/25 11:38:41;;;;;;;4.83;1.30;;;;;;;9.18;100.00;100179.47;7701671;23;20215;-67
2024/02/25 11:42:03;;;;;;;1.53;1.43;;;;;;;9.16;100.00;100181.47;7699206;23;20208;-67
2024/02/25 11:45:24;;;;;;;1.30;1.20;;;;;;;9.13;100.00;100186.28;7697223;23;20722;-67
2024/02/25 11:48:45;;;;;;;1.53;1.43;;;;;;;9.60;100.00;100186.16;7706837;23;20208;-66
2024/02/25 11:52:07;;;;;;;2.20;1.30;;;;;;;9.12;100.00;100177.38;7696016;23;20216;-67
2024/02/25 11:55:29;;;;;;;1.23;1.13;;;;;;;11.01;100.00;100177.50;7696852;23;20212;-67
2024/02/25 11:58:51;;;;;;;1.87;1.20;;;;;;;11.38;100.00;100179.97;7707534;23;20216;-67
2024/02/25 12:02:12;;;;;;;2.20;1.13;;;;;;;9.44;100.00;100195.84;7694212;23;20203;-66
2024/02/25 12:05:33;;;;;;;0.97;0.93;;;;;;;8.49;100.00;100194.91;7695311;23;20259;-68
2024/02/25 12:08:54;;;;;;;1.47;1.43;;;;;;;8.43;100.00;100190.09;7706514;23;20215;-67
2024/02/25 12:12:17;;;;;;;0.80;0.80;;;;;;;8.09;100.00;100194.13;7691144;23;20223;-66
2024/02/25 12:15:42;;;;;;;1.30;1.20;;;;;;;8.44;100.00;100180.22;7696339;23;20538;-67
2024/02/25 12:19:03;;;;;;;2.33;1.20;;;;;;;8.51;100.00;100173.31;7704196;23;20287;-67
2024/02/25 12:22:24;;;;;;;1.20;1.00;;;;;;;8.79;100.00;100180.50;7696186;23;20495;-68
2024/02/25 12:25:45;;;;;;;2.23;1.60;;;;;;;8.55;100.00;100182.78;7698194;23;20215;-67
2024/02/25 12:29:10;;;;;;;1.77;1.53;;;;;;;8.30;100.00;100180.63;7685559;23;20216;-68
2024/02/25 12:32:31;;;;;;;2.27;1.70;;;;;;;8.06;100.00;100180.97;7699202;23;20437;-67
2024/02/25 12:35:55;;;;;;;1.63;1.47;;;;;;;8.22;100.00;100183.13;7696650;23;20208;-67
2024/02/25 12:39:20;;;;;;;1.67;1.57;;;;;;;8.17;100.00;100193.41;7708145;23;20505;-67
2024/02/25 12:42:47;;;;;;;1.20;1.20;;;;;;;8.89;100.00;100184.03;7701536;23;20282;-67
2024/02/25 12:46:10;;;;;;;5.93;1.17;;;;;;;8.63;100.00;100183.78;7656431;23;20282;-67
2024/02/25 12:49:32;;;;;;;1.47;1.30;;;;;;;9.99;100.00;100183.31;7705570;23;20819;-67
2024/02/25 12:52:53;;;;;;;1.93;1.23;;;;;;;11.75;100.00;100165.22;7698451;23;20219;-68
2024/02/25 12:56:14;;;;;;;1.30;1.20;;;;;;;9.78;100.00;100161.16;7683598;22;20216;-68
2024/02/25 12:59:35;;;;;;;1.67;1.57;;;;;;;9.05;100.00;100170.88;7701889;23;20748;-68
2024/02/25 13:02:58;;;;;;;1.63;1.53;;;;;;;9.45;100.00;100181.41;7688244;23;20227;-69
2024/02/25 13:06:19;;;;;;;3.87;1.77;;;;;;;9.38;100.00;100164.16;7696477;23;20207;-68
2024/02/25 13:09:40;;;;;;;1.57;1.03;;;;;;;9.35;100.00;100156.34;7703176;23;20557;-67
2024/02/25 13:13:01;;;;;;;1.57;1.10;;;;;;;8.65;100.00;100159.44;7685846;23;20219;-67
2024/02/25 13:16:22;;;;;;;1.17;1.07;;;;;;;8.61;100.00;100155.34;7699561;23;20211;-68
2024/02/25 13:19:44;;;;;;;1.23;1.20;;;;;;;8.76;100.00;100152.06;7704507;23;22255;-68
2024/02/25 13:23:05;;;;;;;1.30;1.27;;;;;;;8.71;100.00;100151.69;7697742;23;20219;-67
2024/02/25 13:26:26;;;;;;;1.33;1.23;;;;;;;8.61;100.00;100144.59;7696182;23;20265;-67
2024/02/25 13:29:49;;;;;;;0.83;0.73;;;;;;;8.61;100.00;100152.66;7701818;23;20207;-67
2024/02/25 13:33:10;;;;;;;1.50;1.40;;;;;;;8.61;100.00;100150.84;7682376;23;20274;-67
2024/02/25 13:36:36;;;;;;;1.50;1.30;;;;;;;8.54;100.00;100146.16;7698292;23;20212;-67
2024/02/25 13:39:57;;;;;;;1.40;1.30;;;;;;;8.40;100.00;100155.50;7705164;23;20635;-67
2024/02/25 13:43:18;;;;;;;2.67;1.13;;;;;;;8.34;100.00;100156.06;7705742;23;20212;-67
2024/02/25 13:46:39;;;;;;;1.20;1.13;;;;;;;8.28;100.00;100155.75;7700488;23;20220;-68
2024/02/25 13:50:00;;;;;;;1.20;1.10;;;;;;;8.00;100.00;100192.25;7703335;23;20216;-67
2024/02/25 13:53:23;;;;;;;0.83;0.83;;;;;;;6.72;100.00;100222.22;7704837;23;20212;-68
2024/02/25 13:56:44;;;;;;;0.80;0.80;;;;;;;6.70;100.00;100197.41;7694995;23;20215;-68
2024/02/25 14:00:09;;;;;;;1.03;1.03;;;;;;;6.92;100.00;100192.81;7701625;23;20212;-67
2024/02/25 14:03:34;;;;;;;0.80;0.80;;;;;;;6.78;100.00;100197.63;7699600;23;20298;-67
2024/02/25 14:06:56;;;;;;;0.93;0.93;;;;;;;7.06;100.00;100195.16;7692439;23;20212;-67
2024/02/25 14:10:18;;;;;;;1.10;1.00;;;;;;;7.11;100.00;100202.81;7700024;23;20204;-68
2024/02/25 14:13:39;;;;;;;0.97;0.77;;;;;;;7.14;100.00;100187.31;7704756;23;20850;-67
2024/02/25 14:17:00;;;;;;;0.70;0.70;;;;;;;7.58;100.00;100190.66;7702994;23;20542;-69
2024/02/25 14:20:21;;;;;;;1.03;1.03;;;;;;;7.90;100.00;100188.69;7700448;23;20216;-68
2024/02/25 14:23:43;;;;;;;1.57;1.17;;;;;;;8.26;100.00;100185.41;7708269;23;20435;-68
2024/02/25 14:27:15;;;;;;;1.40;0.70;;;;;;;10.23;100.00;100179.09;7689240;23;20212;-70
2024/02/25 14:30:36;;;;;;;2.30;1.37;;;;;;;12.51;100.00;100166.00;7662869;23;20286;-68
2024/02/25 14:33:56;;;;;;;1.10;1.10;;;;;;;12.93;100.00;100159.63;7706174;23;20215;-68
2024/02/25 14:37:17;;;;;;;0.90;0.90;;;;;;;12.08;100.00;100173.47;7699864;23;20211;-67
2024/02/25 14:40:39;;;;;;;1.03;1.03;;;;;;;10.74;100.00;100169.50;7698653;23;20566;-68
2024/02/25 14:44:01;;;;;;;1.50;1.37;;;;;;;12.46;100.00;100165.63;7706255;23;20287;-68
2024/02/25 14:47:22;;;;;;;0.80;0.80;;;;;;;12.29;100.00;100172.00;7686613;23;20208;-68
2024/02/25 14:50:44;;;;;;;1.57;1.47;;;;;;;13.45;100.00;100156.41;7695991;23;20212;-67
2024/02/25 14:54:04;;;;;;;0.87;0.87;;;;;;;11.91;100.00;100178.78;7702460;23;20208;-68
2024/02/25 14:57:25;;;;;;;1.87;1.40;;;;;;;13.97;100.00;100164.03;7659260;23;20504;-69
2024/02/25 15:00:47;;;;;;;3.47;1.10;;;;;;;11.95;100.00;100179.34;7677096;23;20208;-67
2024/02/25 15:04:08;;;;;;;1.43;0.93;;;;;;;11.55;100.00;100173.66;7635947;23;20216;-69
2024/02/25 15:07:29;;;;;;;1.00;1.00;;;;;;;9.10;100.00;100176.66;7698767;23;20227;-67
2024/02/25 15:10:50;;;;;;;1.00;1.00;;;;;;;9.25;100.00;100185.97;7696761;23;20212;-67
2024/02/25 15:14:11;;;;;;;1.10;1.10;;;;;;;8.52;100.00;100180.38;7704711;23;20621;-68
2024/02/25 15:17:37;;;;;;;1.57;1.30;;;;;;;8.42;100.00;100188.41;7697361;23;20247;-68
2024/02/25 15:20:59;;;;;;;1.23;1.20;;;;;;;8.42;100.00;100190.25;7697767;23;20212;-67
2024/02/25 15:24:20;;;;;;;1.20;1.10;;;;;;;8.21;100.00;100186.78;7702671;23;20224;-68
2024/02/25 15:27:49;;;;;;;1.03;1.00;;;;;;;8.01;100.00;100200.16;7660249;23;20219;-68
2024/02/25 15:31:31;;;;;;;1.10;1.00;;;;;;;8.22;100.00;100202.75;7613479;23;20207;-67
2024/02/25 15:39:37;;;;;;;2.00;1.90;;;;;;;8.03;100.00;100208.09;7632553;23;21370;-70
2024/02/25 15:43:08;;;;;;;1.47;1.33;;;;;;;8.15;100.00;100201.63;7588615;23;20214;-71